首页
METAR-TAF:

METAR-TAF

机场 :

因斯布魯克機場

因斯布鲁克, 奥地利

纬度: 47-16N, 经度: 011-21E, 海拔: 581米

当前天气观测

该预报发布于20分钟前的04:50 UTC
风速2节,风向多变
温度 4°C
湿度 75%
气压 1026 hPa
能见度10公里或以上
少量云层高于6000英尺
多云层高于8000英尺

METAR: LOWI 230450Z VRB02KT 9999 FEW060 BKN080 04/00 Q1026 NOSIG

时间: 06:10 (05:10 UTC)

预报

该预报发布于5小时和55分钟前的23:15 UTC
预报有效从23日的 00点(UTC)到 23日的 24点(UTC)
风速5节,风向西
能见度10公里或以上
1500米以下无云,无积雨云
短暂存在
从 23日的 00点(UTC)到 23日的 18点(UTC)
少量云层高于8000英尺
多云层高于12000英尺
短暂存在
从 23日的 10点(UTC)到 23日的 18点(UTC)
风速20节,风向西转西北,有时为40节阵风

TAF: LOWI 222315Z 2300/2324 27005KT CAVOK TX14/2315Z TN04/2300Z TEMPO 2300/2318 FEW080 BKN120 TEMPO 2310/2318 29020G40KT

超过4000个机场的气象观测和天气预报(METAR&TAF报告)。

可查询的气象台以黄色和红色小点在地图上表示。

将鼠标移到小点上方,可查看气象台名称。

然后点击查看天气观测和预报。

如需切换地图:点击带黑十字的绿色按钮放大地图;点击带横线的绿色按钮缩小地图;或者点击绿色箭头查看邻近地区的地图。


METAR-TAF: